Time;durP1;ratioP1;P1;durP2;ratioP2;P2;SDS_P1;SDS_P2;PMS_P1;PMS_P2;Temp;Humidity;BMP_temperature;BMP_pressure;BME280_temperature;BME280_humidity;BME280_pressure;Samples;Min_cycle;Max_cycle;Signal;HPM_P1;HPM_P2
2023/09/09 00:01:50;;;;;;;9.45;8.43;;;;;;;;;;4976353;28;20551;-74
2023/09/09 00:04:16;;;;;;;9.15;7.78;;;;;;;;;;4976461;28;20213;-74
2023/09/09 00:06:42;;;;;;;10.32;9.30;;;;;;;;;;4976219;28;20307;-74
2023/09/09 00:09:09;;;;;;;8.93;7.68;;;;;;;;;;4975886;28;20211;-74
2023/09/09 00:11:35;;;;;;;9.13;8.23;;;;;;;;;;4975742;28;20204;-74
2023/09/09 00:14:03;;;;;;;9.98;8.52;;;;;;;;;;4976052;28;20209;-74
2023/09/09 00:16:32;;;;;;;8.85;8.05;;;;;;;;;;4975540;28;20606;-74
2023/09/09 00:18:59;;;;;;;9.70;8.70;;;;;;;;;;4976115;28;20203;-74
2023/09/09 00:21:25;;;;;;;11.60;8.80;;;;;;;;;;4975869;28;20296;-74
2023/09/09 00:23:51;;;;;;;9.95;9.07;;;;;;;;;;4976104;28;20279;-74
2023/09/09 00:26:18;;;;;;;9.52;8.57;;;;;;;;;;4976223;28;20227;-74
2023/09/09 00:28:44;;;;;;;10.77;8.93;;;;;;;;;;4975981;28;20204;-74
2023/09/09 00:31:11;;;;;;;10.68;8.38;;;;;;;;;;4975613;28;20208;-75
2023/09/09 00:33:38;;;;;;;9.77;8.75;;;;;;;;;;4975344;28;20677;-76
2023/09/09 00:36:04;;;;;;;9.77;8.80;;;;;;;;;;4975188;28;20223;-75
2023/09/09 00:38:31;;;;;;;9.70;8.60;;;;;;;;;;4975611;28;20590;-75
2023/09/09 00:41:10;;;;;;;9.63;8.70;;;;;;;;;;4975555;28;20211;-75
2023/09/09 00:43:37;;;;;;;9.30;8.50;;;;;;;;;;4975467;28;20208;-75
2023/09/09 00:46:04;;;;;;;8.85;7.93;;;;;;;;;;4975037;28;20821;-75
2023/09/09 00:48:31;;;;;;;10.85;8.50;;;;;;;;;;4975286;28;20211;-75
2023/09/09 00:50:58;;;;;;;9.70;8.90;;;;;;;;;;4975244;28;20203;-75
2023/09/09 00:53:25;;;;;;;11.20;9.30;;;;;;;;;;4975447;28;20207;-75
2023/09/09 00:55:51;;;;;;;9.73;8.80;;;;;;;;;;4974900;28;20228;-75
2023/09/09 00:58:17;;;;;;;8.57;7.78;;;;;;;;;;4975282;28;20227;-75
2023/09/09 01:00:44;;;;;;;8.82;7.93;;;;;;;;;;4975502;28;20575;-75
2023/09/09 01:03:10;;;;;;;9.45;8.52;;;;;;;;;;4975105;28;20223;-75
2023/09/09 01:05:38;;;;;;;10.43;9.32;;;;;;;;;;4974762;28;20228;-74
2023/09/09 01:08:05;;;;;;;10.05;9.23;;;;;;;;;;4975449;28;20290;-75
2023/09/09 01:10:31;;;;;;;9.15;8.23;;;;;;;;;;4974974;28;20238;-75
2023/09/09 01:12:57;;;;;;;8.48;7.78;;;;;;;;;;4975446;28;20204;-75
2023/09/09 01:15:23;;;;;;;9.30;8.27;;;;;;;;;;4974640;28;20250;-75
2023/09/09 01:17:52;;;;;;;10.85;7.85;;;;;;;;;;4974700;28;20210;-75
2023/09/09 01:20:19;;;;;;;9.15;8.25;;;;;;;;;;4974784;28;20208;-75
2023/09/09 01:22:48;;;;;;;9.02;8.23;;;;;;;;;;4974708;28;20563;-75
2023/09/09 01:25:16;;;;;;;9.65;8.73;;;;;;;;;;4974441;28;20259;-75
2023/09/09 01:27:42;;;;;;;9.40;8.35;;;;;;;;;;4975006;28;20200;-75
2023/09/09 01:30:11;;;;;;;9.85;8.88;;;;;;;;;;4974875;28;20219;-75
2023/09/09 01:32:37;;;;;;;8.70;8.05;;;;;;;;;;4974670;28;20668;-75
2023/09/09 01:35:06;;;;;;;8.68;7.97;;;;;;;;;;4974451;28;20220;-75
2023/09/09 01:37:33;;;;;;;8.98;8.07;;;;;;;;;;4974642;28;20239;-75
2023/09/09 01:40:05;;;;;;;9.77;8.85;;;;;;;;;;4974640;28;20207;-75
2023/09/09 01:42:32;;;;;;;10.38;8.88;;;;;;;;;;4974353;28;20677;-75
2023/09/09 01:44:58;;;;;;;9.15;8.23;;;;;;;;;;4973808;28;20223;-76
2023/09/09 01:47:24;;;;;;;10.65;8.68;;;;;;;;;;4973288;28;20560;-75
2023/09/09 01:49:50;;;;;;;9.55;8.75;;;;;;;;;;4974470;28;20236;-75
2023/09/09 01:52:17;;;;;;;8.93;8.13;;;;;;;;;;4974417;28;20204;-75
2023/09/09 01:54:43;;;;;;;8.88;8.18;;;;;;;;;;4973886;28;20211;-75
2023/09/09 01:57:11;;;;;;;9.38;8.48;;;;;;;;;;4974169;28;20264;-75
2023/09/09 01:59:37;;;;;;;10.73;9.57;;;;;;;;;;4974119;28;20591;-75
2023/09/09 02:02:03;;;;;;;10.05;9.07;;;;;;;;;;4974001;28;20683;-75
2023/09/09 02:04:30;;;;;;;10.32;9.05;;;;;;;;;;4973918;28;20207;-76
2023/09/09 02:06:56;;;;;;;10.23;9.20;;;;;;;;;;4973901;28;20694;-75
2023/09/09 02:09:22;;;;;;;11.00;9.15;;;;;;;;;;4973782;28;20675;-75
2023/09/09 02:11:48;;;;;;;10.18;9.13;;;;;;;;;;4973834;28;20207;-75
2023/09/09 02:14:16;;;;;;;10.23;8.60;;;;;;;;;;4973662;28;20239;-75
2023/09/09 02:16:42;;;;;;;10.13;9.23;;;;;;;;;;4973591;28;20242;-75
2023/09/09 02:19:08;;;;;;;12.15;9.40;;;;;;;;;;4973931;28;20212;-75
2023/09/09 02:21:35;;;;;;;10.25;9.25;;;;;;;;;;4973699;28;20217;-75
2023/09/09 02:24:02;;;;;;;9.93;9.10;;;;;;;;;;4961457;28;20193;-76
2023/09/09 02:26:28;;;;;;;10.73;8.88;;;;;;;;;;4964368;28;20231;-76
2023/09/09 02:28:56;;;;;;;10.65;8.88;;;;;;;;;;4967791;28;20212;-77
2023/09/09 02:31:24;;;;;;;10.15;9.27;;;;;;;;;;4968338;28;20588;-77
2023/09/09 02:33:50;;;;;;;9.10;8.20;;;;;;;;;;4968665;28;20207;-77
2023/09/09 02:36:16;;;;;;;9.90;8.90;;;;;;;;;;4968425;28;20274;-75
2023/09/09 02:38:43;;;;;;;10.43;8.88;;;;;;;;;;4968724;28;20211;-76
2023/09/09 02:41:09;;;;;;;10.25;9.25;;;;;;;;;;4968313;28;20219;-76
2023/09/09 02:43:36;;;;;;;9.25;8.35;;;;;;;;;;4967826;28;20212;-76
2023/09/09 02:46:02;;;;;;;10.18;8.80;;;;;;;;;;4967754;28;20224;-77
2023/09/09 02:48:30;;;;;;;10.50;9.57;;;;;;;;;;4962406;28;20239;-76
2023/09/09 02:50:56;;;;;;;9.30;8.50;;;;;;;;;;4968058;28;20207;-76
2023/09/09 02:53:22;;;;;;;9.63;8.75;;;;;;;;;;4968387;28;20219;-77
2023/09/09 02:55:49;;;;;;;9.63;8.75;;;;;;;;;;4967381;28;20235;-76
2023/09/09 02:58:15;;;;;;;9.90;8.73;;;;;;;;;;4967945;28;20219;-76
2023/09/09 03:00:41;;;;;;;10.07;8.82;;;;;;;;;;4970212;28;20207;-77
2023/09/09 03:03:07;;;;;;;9.85;8.73;;;;;;;;;;4968630;28;20215;-76
2023/09/09 03:05:36;;;;;;;11.00;8.93;;;;;;;;;;4967859;28;20231;-76
2023/09/09 03:08:03;;;;;;;13.30;8.90;;;;;;;;;;4969539;28;20235;-76
2023/09/09 03:10:29;;;;;;;9.93;8.90;;;;;;;;;;4968143;28;20220;-76
2023/09/09 03:12:57;;;;;;;9.70;8.70;;;;;;;;;;4968264;28;20639;-75
2023/09/09 03:15:23;;;;;;;9.77;8.88;;;;;;;;;;4967361;28;20231;-77
2023/09/09 03:17:50;;;;;;;10.38;9.48;;;;;;;;;;4967763;28;20255;-77
2023/09/09 03:20:16;;;;;;;10.50;9.38;;;;;;;;;;4962261;28;20209;-77
2023/09/09 03:22:44;;;;;;;10.57;9.48;;;;;;;;;;4955851;28;20510;-78
2023/09/09 03:25:10;;;;;;;10.23;9.40;;;;;;;;;;4954021;28;20239;-78
2023/09/09 03:27:37;;;;;;;14.20;9.57;;;;;;;;;;4954715;28;20213;-78
2023/09/09 03:30:03;;;;;;;11.68;9.77;;;;;;;;;;4955333;28;20630;-79
2023/09/09 03:32:30;;;;;;;10.20;9.35;;;;;;;;;;4949123;28;20560;-75
2023/09/09 03:34:56;;;;;;;9.55;8.68;;;;;;;;;;4947655;28;20259;-76
2023/09/09 03:37:22;;;;;;;10.25;9.20;;;;;;;;;;4948111;28;20224;-75
2023/09/09 03:39:50;;;;;;;10.13;9.20;;;;;;;;;;4950945;28;20218;-75
2023/09/09 03:42:17;;;;;;;10.88;9.35;;;;;;;;;;4962107;28;20212;-75
2023/09/09 03:44:43;;;;;;;10.07;9.07;;;;;;;;;;4962292;28;20904;-75
2023/09/09 03:47:09;;;;;;;10.00;9.10;;;;;;;;;;4955520;28;20203;-76
2023/09/09 03:49:36;;;;;;;10.45;9.45;;;;;;;;;;4947767;29;20593;-75
2023/09/09 03:52:02;;;;;;;10.73;9.32;;;;;;;;;;4948021;29;20209;-75
2023/09/09 03:54:29;;;;;;;11.40;9.57;;;;;;;;;;4947531;28;20216;-75
2023/09/09 03:56:57;;;;;;;10.38;8.95;;;;;;;;;;4947750;28;20236;-75
2023/09/09 03:59:28;;;;;;;10.25;9.35;;;;;;;;;;4953478;28;20291;-77
2023/09/09 04:01:54;;;;;;;10.70;9.55;;;;;;;;;;4948561;29;20216;-76
2023/09/09 04:04:20;;;;;;;10.23;9.18;;;;;;;;;;4947520;29;20212;-74
2023/09/09 04:06:47;;;;;;;10.13;9.23;;;;;;;;;;4947177;29;20232;-74
2023/09/09 04:09:21;;;;;;;13.57;9.70;;;;;;;;;;4948125;28;20255;-75
2023/09/09 04:11:47;;;;;;;10.57;9.30;;;;;;;;;;4963761;28;20212;-76
2023/09/09 04:14:15;;;;;;;10.52;8.90;;;;;;;;;;4976564;28;20207;-76
2023/09/09 04:16:41;;;;;;;10.48;9.65;;;;;;;;;;4975507;28;20234;-75
2023/09/09 04:19:07;;;;;;;9.85;8.95;;;;;;;;;;4975557;28;20568;-75
2023/09/09 04:21:33;;;;;;;10.82;9.73;;;;;;;;;;4975856;28;21066;-75
2023/09/09 04:24:00;;;;;;;10.25;9.35;;;;;;;;;;4976629;28;20218;-75
2023/09/09 04:26:26;;;;;;;14.60;9.20;;;;;;;;;;4976137;28;20329;-75
2023/09/09 04:28:56;;;;;;;10.98;8.90;;;;;;;;;;4975553;28;20204;-60
2023/09/09 04:31:24;;;;;;;10.45;9.55;;;;;;;;;;4975553;28;20251;-60
2023/09/09 04:33:50;;;;;;;10.75;9.80;;;;;;;;;;4974702;28;20672;-60
2023/09/09 04:36:16;;;;;;;11.18;9.02;;;;;;;;;;4974113;28;20224;-61
2023/09/09 04:38:43;;;;;;;10.15;9.27;;;;;;;;;;4975687;28;20208;-60
2023/09/09 04:41:09;;;;;;;10.52;9.63;;;;;;;;;;4975586;28;20210;-60
2023/09/09 04:43:35;;;;;;;10.05;9.23;;;;;;;;;;4975432;28;20212;-60
2023/09/09 04:46:01;;;;;;;10.65;9.65;;;;;;;;;;4975126;28;20708;-60
2023/09/09 04:48:29;;;;;;;10.40;9.40;;;;;;;;;;4975274;28;20551;-60
2023/09/09 04:50:55;;;;;;;9.88;8.93;;;;;;;;;;4975394;28;20211;-60
2023/09/09 04:53:21;;;;;;;10.07;9.30;;;;;;;;;;4975500;28;20211;-60
2023/09/09 04:55:48;;;;;;;11.02;9.70;;;;;;;;;;4974849;28;20234;-60
2023/09/09 04:58:14;;;;;;;10.40;9.30;;;;;;;;;;4975091;28;20234;-60
2023/09/09 05:00:41;;;;;;;11.15;10.13;;;;;;;;;;4974893;28;20640;-60
2023/09/09 05:03:07;;;;;;;11.77;9.32;;;;;;;;;;4974930;28;20208;-60
2023/09/09 05:05:35;;;;;;;11.15;9.98;;;;;;;;;;4974857;28;20224;-60
2023/09/09 05:08:01;;;;;;;10.75;9.43;;;;;;;;;;4975289;28;20199;-60
2023/09/09 05:10:29;;;;;;;11.95;10.73;;;;;;;;;;4974926;28;20234;-60
2023/09/09 05:12:56;;;;;;;11.85;10.80;;;;;;;;;;4974940;28;20255;-60
2023/09/09 05:15:22;;;;;;;15.02;10.80;;;;;;;;;;4974612;28;20234;-60
2023/09/09 05:17:48;;;;;;;11.45;10.45;;;;;;;;;;4975050;28;20227;-60
2023/09/09 05:20:14;;;;;;;11.27;10.13;;;;;;;;;;4974617;28;20204;-60
2023/09/09 05:22:42;;;;;;;11.32;10.32;;;;;;;;;;4974577;28;20204;-60
2023/09/09 05:25:08;;;;;;;12.00;10.18;;;;;;;;;;4974246;28;20740;-60
2023/09/09 05:27:35;;;;;;;12.00;10.75;;;;;;;;;;4974957;28;20196;-62
2023/09/09 05:30:01;;;;;;;11.70;10.60;;;;;;;;;;4974654;28;20204;-62
2023/09/09 05:32:27;;;;;;;10.95;10.05;;;;;;;;;;4974728;28;20211;-62
2023/09/09 05:34:53;;;;;;;15.10;11.10;;;;;;;;;;4974001;28;20708;-63
2023/09/09 05:37:20;;;;;;;12.45;11.18;;;;;;;;;;4974324;28;20722;-62
2023/09/09 05:39:47;;;;;;;12.60;11.02;;;;;;;;;;4974492;28;20211;-62
2023/09/09 05:42:14;;;;;;;11.27;10.35;;;;;;;;;;4974317;28;20207;-59
2023/09/09 05:44:40;;;;;;;13.63;11.52;;;;;;;;;;4974170;28;20286;-59
2023/09/09 05:47:08;;;;;;;11.68;10.57;;;;;;;;;;4974247;28;20204;-59
2023/09/09 05:49:34;;;;;;;14.25;11.32;;;;;;;;;;4974318;28;20208;-61
2023/09/09 05:52:00;;;;;;;12.93;11.60;;;;;;;;;;4974168;28;20207;-61
2023/09/09 05:54:26;;;;;;;12.65;11.40;;;;;;;;;;4974092;28;20218;-61
2023/09/09 05:56:54;;;;;;;14.18;11.10;;;;;;;;;;4974068;28;20228;-60
2023/09/09 05:59:20;;;;;;;13.32;11.60;;;;;;;;;;4974061;28;20543;-61
2023/09/09 06:01:46;;;;;;;11.45;10.45;;;;;;;;;;4973896;28;20280;-61
2023/09/09 06:04:15;;;;;;;11.52;10.52;;;;;;;;;;4974085;28;20208;-61
2023/09/09 06:06:41;;;;;;;11.57;10.38;;;;;;;;;;4973561;28;20219;-61
2023/09/09 06:09:08;;;;;;;15.60;11.48;;;;;;;;;;4973972;28;20223;-61
2023/09/09 06:11:34;;;;;;;13.27;11.77;;;;;;;;;;4973869;28;20200;-61
2023/09/09 06:14:02;;;;;;;12.45;11.18;;;;;;;;;;4974245;28;20679;-61
2023/09/09 06:16:28;;;;;;;11.88;10.65;;;;;;;;;;4973509;28;20251;-61
2023/09/09 06:18:54;;;;;;;12.95;11.65;;;;;;;;;;4974355;28;20207;-61
2023/09/09 06:21:21;;;;;;;13.85;12.45;;;;;;;;;;4974371;28;20207;-61
2023/09/09 06:23:47;;;;;;;15.85;12.48;;;;;;;;;;4973794;28;20590;-61
2023/09/09 06:26:13;;;;;;;13.57;12.35;;;;;;;;;;4973457;28;20223;-61
2023/09/09 06:28:40;;;;;;;12.45;11.07;;;;;;;;;;4973504;28;20211;-61
2023/09/09 06:31:07;;;;;;;12.88;11.60;;;;;;;;;;4973592;28;20211;-61
2023/09/09 06:33:34;;;;;;;13.98;12.65;;;;;;;;;;4972955;28;20200;-61
2023/09/09 06:36:00;;;;;;;12.25;11.15;;;;;;;;;;4972988;28;20711;-61
2023/09/09 06:38:26;;;;;;;16.55;12.05;;;;;;;;;;4973301;28;20616;-61
2023/09/09 06:40:53;;;;;;;14.75;11.23;;;;;;;;;;4973175;28;20210;-61
2023/09/09 06:43:20;;;;;;;13.10;11.70;;;;;;;;;;4973347;28;20207;-61
2023/09/09 06:45:46;;;;;;;13.32;11.93;;;;;;;;;;4972763;28;20720;-61
2023/09/09 06:48:16;;;;;;;15.18;12.18;;;;;;;;;;4973322;28;20203;-60
2023/09/09 06:50:43;;;;;;;13.63;12.25;;;;;;;;;;4973135;28;20726;-60
2023/09/09 06:53:09;;;;;;;15.88;12.80;;;;;;;;;;4973074;28;20212;-60
2023/09/09 06:55:35;;;;;;;12.95;11.35;;;;;;;;;;4972600;28;20224;-61
2023/09/09 06:58:03;;;;;;;12.55;11.15;;;;;;;;;;4972943;28;20694;-61
2023/09/09 07:00:29;;;;;;;12.82;11.30;;;;;;;;;;4973036;28;20200;-61
2023/09/09 07:02:56;;;;;;;13.65;12.27;;;;;;;;;;4973191;28;20211;-61
2023/09/09 07:05:23;;;;;;;13.05;11.82;;;;;;;;;;4973007;28;20223;-61
2023/09/09 07:07:49;;;;;;;20.35;12.25;;;;;;;;;;4973127;28;20207;-62
2023/09/09 07:10:16;;;;;;;15.25;11.70;;;;;;;;;;4973007;28;20906;-61
2023/09/09 07:12:42;;;;;;;18.77;11.52;;;;;;;;;;4973272;28;20203;-61
2023/09/09 07:15:09;;;;;;;13.48;12.18;;;;;;;;;;4972775;28;20250;-61
2023/09/09 07:17:35;;;;;;;13.82;12.50;;;;;;;;;;4973277;28;20231;-61
2023/09/09 07:20:03;;;;;;;14.48;12.32;;;;;;;;;;4973376;28;20207;-61
2023/09/09 07:22:30;;;;;;;13.30;12.10;;;;;;;;;;5009859;23;20237;-70
2023/09/09 07:24:56;;;;;;;12.45;11.30;;;;;;;;;;5003130;28;20590;-70
2023/09/09 07:27:23;;;;;;;12.73;11.23;;;;;;;;;;5001137;28;20194;-70
2023/09/09 07:29:49;;;;;;;11.75;10.65;;;;;;;;;;5000184;28;20206;-70
2023/09/09 07:32:15;;;;;;;14.25;12.50;;;;;;;;;;5001456;28;20694;-69
2023/09/09 07:34:43;;;;;;;14.68;12.05;;;;;;;;;;5003314;28;20574;-70
2023/09/09 07:37:09;;;;;;;14.38;12.90;;;;;;;;;;5002642;28;20226;-70
2023/09/09 07:39:45;;;;;;;13.20;12.02;;;;;;;;;;5000023;28;20195;-70
2023/09/09 07:42:12;;;;;;;13.55;12.18;;;;;;;;;;5000856;28;20203;-70
2023/09/09 07:44:38;;;;;;;13.00;10.85;;;;;;;;;;5004471;28;20198;-70
2023/09/09 07:47:07;;;;;;;12.77;11.48;;;;;;;;;;5007117;28;20198;-71
2023/09/09 07:49:33;;;;;;;13.25;11.95;;;;;;;;;;5007239;28;20221;-71
2023/09/09 07:51:59;;;;;;;12.32;11.23;;;;;;;;;;5007173;28;20207;-71
2023/09/09 07:54:25;;;;;;;14.52;11.35;;;;;;;;;;5004376;28;20198;-70
2023/09/09 07:56:54;;;;;;;13.50;11.73;;;;;;;;;;5003459;28;20198;-70
2023/09/09 07:59:20;;;;;;;11.88;10.75;;;;;;;;;;5005085;28;20575;-70
2023/09/09 08:01:47;;;;;;;15.32;11.35;;;;;;;;;;5006898;28;20205;-70
2023/09/09 08:04:13;;;;;;;12.95;11.63;;;;;;;;;;5005830;28;20206;-69
2023/09/09 08:06:39;;;;;;;14.10;10.50;;;;;;;;;;5003435;28;20218;-69
2023/09/09 08:09:05;;;;;;;10.75;9.90;;;;;;;;;;5003558;28;20206;-69
2023/09/09 08:11:32;;;;;;;11.68;10.32;;;;;;;;;;5006593;28;20436;-70
2023/09/09 08:13:59;;;;;;;12.50;11.18;;;;;;;;;;5006823;28;20202;-70
2023/09/09 08:16:26;;;;;;;12.10;10.88;;;;;;;;;;5003846;28;20284;-70
2023/09/09 08:18:52;;;;;;;14.50;11.60;;;;;;;;;;5003029;28;20218;-70
2023/09/09 08:21:18;;;;;;;11.82;10.73;;;;;;;;;;5004242;28;20218;-70
2023/09/09 08:23:44;;;;;;;11.88;10.70;;;;;;;;;;5006776;28;20589;-70
2023/09/09 08:26:12;;;;;;;14.07;10.27;;;;;;;;;;5006057;28;20221;-71
2023/09/09 08:28:38;;;;;;;11.57;10.38;;;;;;;;;;5003075;28;20210;-71
2023/09/09 08:31:07;;;;;;;11.40;10.40;;;;;;;;;;5002709;28;20440;-73
2023/09/09 08:33:33;;;;;;;11.32;9.77;;;;;;;;;;5005831;28;20205;-73
2023/09/09 08:36:00;;;;;;;10.82;9.80;;;;;;;;;;5004015;28;20226;-73
2023/09/09 08:38:26;;;;;;;13.50;10.35;;;;;;;;;;5003695;28;20225;-73
2023/09/09 08:40:55;;;;;;;11.15;9.98;;;;;;;;;;5002773;28;20199;-73
2023/09/09 08:43:24;;;;;;;12.50;10.50;;;;;;;;;;5004360;28;20217;-73
2023/09/09 08:45:57;;;;;;;10.60;9.50;;;;;;;;;;5006272;28;20217;-73
2023/09/09 08:48:24;;;;;;;11.88;10.35;;;;;;;;;;5004842;28;20209;-73
2023/09/09 08:50:53;;;;;;;9.65;8.85;;;;;;;;;;5002917;28;20550;-73
2023/09/09 08:53:20;;;;;;;9.43;8.55;;;;;;;;;;5004072;28;20689;-73
2023/09/09 08:55:47;;;;;;;11.70;8.85;;;;;;;;;;5005482;28;20225;-73
2023/09/09 08:58:14;;;;;;;9.82;8.88;;;;;;;;;;5005894;28;20655;-71
2023/09/09 09:00:40;;;;;;;10.25;9.15;;;;;;;;;;5002787;28;20198;-71
2023/09/09 09:03:06;;;;;;;9.93;9.05;;;;;;;;;;5002786;28;20608;-72
2023/09/09 09:05:36;;;;;;;10.10;9.07;;;;;;;;;;5004927;28;20222;-72
2023/09/09 09:08:03;;;;;;;9.13;8.32;;;;;;;;;;5006280;28;20208;-72
2023/09/09 09:10:29;;;;;;;9.27;8.40;;;;;;;;;;5005817;28;20202;-72
2023/09/09 09:12:56;;;;;;;9.18;8.32;;;;;;;;;;5004273;28;20218;-72
2023/09/09 09:15:22;;;;;;;9.30;8.48;;;;;;;;;;5003182;28;20222;-71
2023/09/09 09:17:49;;;;;;;9.30;8.32;;;;;;;;;;5005654;28;20220;-71
2023/09/09 09:20:26;;;;;;;9.73;8.30;;;;;;;;;;5005540;28;20212;-71
2023/09/09 09:22:57;;;;;;;9.82;7.57;;;;;;;;;;5002105;28;20242;-71
2023/09/09 09:25:23;;;;;;;12.60;8.80;;;;;;;;;;5004495;28;20230;-71
2023/09/09 09:27:49;;;;;;;9.68;8.77;;;;;;;;;;5007240;28;20198;-71
2023/09/09 09:30:22;;;;;;;11.10;8.13;;;;;;;;;;5006860;28;20210;-71
2023/09/09 09:32:51;;;;;;;10.07;8.20;;;;;;;;;;4995114;28;20201;-71
2023/09/09 09:35:24;;;;;;;9.80;8.77;;;;;;;;;;5001618;28;20246;-71
2023/09/09 09:37:56;;;;;;;8.52;7.50;;;;;;;;;;5005042;28;20228;-70
2023/09/09 09:40:22;;;;;;;9.98;8.27;;;;;;;;;;5004324;28;20201;-71
2023/09/09 09:42:49;;;;;;;11.05;7.93;;;;;;;;;;5002081;28;20682;-70
2023/09/09 09:45:16;;;;;;;7.95;7.32;;;;;;;;;;5001744;28;20249;-71
2023/09/09 09:47:43;;;;;;;8.60;7.80;;;;;;;;;;4993874;28;20209;-71
2023/09/09 09:50:16;;;;;;;12.32;7.82;;;;;;;;;;5002007;28;20222;-71
2023/09/09 09:52:47;;;;;;;10.20;7.78;;;;;;;;;;4993605;28;20249;-70
2023/09/09 09:55:17;;;;;;;8.57;7.55;;;;;;;;;;5001634;28;20318;-70
2023/09/09 09:57:45;;;;;;;9.10;7.60;;;;;;;;;;4993734;28;20206;-70
2023/09/09 10:00:12;;;;;;;8.85;7.95;;;;;;;;;;4996816;28;20295;-70
2023/09/09 10:02:39;;;;;;;8.75;7.95;;;;;;;;;;5004495;28;20686;-71
2023/09/09 10:05:06;;;;;;;8.23;7.43;;;;;;;;;;5004904;28;20218;-71
2023/09/09 10:07:33;;;;;;;8.15;7.43;;;;;;;;;;5002628;28;20213;-71
2023/09/09 10:10:04;;;;;;;8.13;7.35;;;;;;;;;;4998646;28;20205;-74
2023/09/09 10:12:37;;;;;;;8.13;7.35;;;;;;;;;;4993886;28;20218;-71
2023/09/09 10:15:03;;;;;;;8.40;7.25;;;;;;;;;;4999570;28;20249;-71
2023/09/09 10:17:29;;;;;;;7.78;7.00;;;;;;;;;;4991842;28;20210;-71
2023/09/09 10:19:56;;;;;;;7.88;7.07;;;;;;;;;;4999904;28;20461;-72
2023/09/09 10:22:24;;;;;;;7.15;6.65;;;;;;;;;;4999485;28;20217;-71
2023/09/09 10:24:51;;;;;;;8.52;6.43;;;;;;;;;;4995788;28;20222;-72
2023/09/09 10:27:18;;;;;;;8.57;6.57;;;;;;;;;;4995092;28;20210;-73
2023/09/09 10:29:46;;;;;;;8.00;6.50;;;;;;;;;;4983912;28;20210;-72
2023/09/09 10:32:13;;;;;;;6.65;6.15;;;;;;;;;;4970374;28;20218;-73
2023/09/09 10:34:41;;;;;;;8.18;6.70;;;;;;;;;;4970130;28;20207;-73
2023/09/09 10:37:09;;;;;;;7.55;6.10;;;;;;;;;;4970498;28;20203;-72
2023/09/09 10:39:36;;;;;;;8.82;6.22;;;;;;;;;;4970256;28;20688;-71
2023/09/09 10:42:04;;;;;;;9.10;6.03;;;;;;;;;;4978195;28;20211;-72
2023/09/09 10:44:30;;;;;;;9.38;6.13;;;;;;;;;;4984112;28;20622;-72
2023/09/09 10:46:58;;;;;;;8.98;6.18;;;;;;;;;;4969906;28;20667;-72
2023/09/09 10:49:25;;;;;;;6.45;5.82;;;;;;;;;;4970139;28;20203;-72
2023/09/09 10:51:52;;;;;;;5.97;5.47;;;;;;;;;;4979013;28;20231;-72
2023/09/09 10:54:19;;;;;;;7.03;6.40;;;;;;;;;;4977456;28;20210;-71
2023/09/09 10:56:46;;;;;;;10.15;7.10;;;;;;;;;;4978147;28;20311;-71
2023/09/09 10:59:16;;;;;;;8.35;6.18;;;;;;;;;;4977853;28;20227;-71
2023/09/09 11:01:42;;;;;;;7.80;6.43;;;;;;;;;;4972138;28;20238;-71
2023/09/09 11:04:19;;;;;;;6.53;5.53;;;;;;;;;;4969624;28;20744;-71
2023/09/09 11:06:58;;;;;;;11.02;5.85;;;;;;;;;;4969615;28;20235;-73
2023/09/09 11:09:27;;;;;;;10.10;6.43;;;;;;;;;;4969704;28;20211;-73
2023/09/09 11:11:55;;;;;;;9.52;5.43;;;;;;;;;;4969599;28;20310;-72
2023/09/09 11:14:22;;;;;;;9.93;5.72;;;;;;;;;;4977882;28;20246;-73
2023/09/09 11:16:54;;;;;;;6.93;5.68;;;;;;;;;;4969452;28;20231;-72
2023/09/09 11:19:23;;;;;;;8.55;5.43;;;;;;;;;;4977244;28;20607;-72
2023/09/09 11:21:50;;;;;;;9.77;5.72;;;;;;;;;;4971239;28;20250;-72
2023/09/09 11:24:17;;;;;;;9.85;5.55;;;;;;;;;;4972568;28;20630;-71
2023/09/09 11:26:44;;;;;;;11.00;5.60;;;;;;;;;;4969505;28;20231;-72
2023/09/09 11:29:10;;;;;;;6.78;5.10;;;;;;;;;;4969603;28;20211;-71
2023/09/09 11:31:36;;;;;;;11.20;5.28;;;;;;;;;;4969245;28;20242;-72
2023/09/09 11:34:03;;;;;;;11.40;5.10;;;;;;;;;;4969394;28;20216;-73
2023/09/09 11:36:31;;;;;;;5.88;5.05;;;;;;;;;;4984927;28;20325;-73
2023/09/09 11:38:59;;;;;;;7.68;5.28;;;;;;;;;;4969351;28;20633;-72
2023/09/09 11:41:26;;;;;;;9.80;5.20;;;;;;;;;;4969325;28;20218;-73
2023/09/09 11:43:59;;;;;;;11.18;5.07;;;;;;;;;;4969419;28;20217;-73
2023/09/09 11:46:26;;;;;;;14.68;5.47;;;;;;;;;;4974515;28;20237;-73
2023/09/09 11:48:52;;;;;;;7.68;5.00;;;;;;;;;;4974755;28;20208;-73
2023/09/09 11:51:18;;;;;;;8.00;5.53;;;;;;;;;;4974102;28;20215;-72
2023/09/09 11:53:46;;;;;;;10.48;5.50;;;;;;;;;;4969224;28;20215;-72
2023/09/09 11:56:14;;;;;;;7.10;5.45;;;;;;;;;;4968885;28;20620;-72
2023/09/09 11:58:41;;;;;;;10.48;5.43;;;;;;;;;;4968941;28;20706;-73
2023/09/09 12:01:07;;;;;;;9.52;4.82;;;;;;;;;;4977243;28;20230;-73
2023/09/09 12:03:33;;;;;;;8.35;5.53;;;;;;;;;;4969500;28;20218;-73
2023/09/09 12:06:01;;;;;;;7.43;4.88;;;;;;;;;;4969734;28;20231;-73
2023/09/09 12:08:28;;;;;;;7.53;5.38;;;;;;;;;;4969418;28;20219;-73
2023/09/09 12:10:56;;;;;;;8.25;4.80;;;;;;;;;;4972314;28;20651;-74
2023/09/09 12:13:22;;;;;;;12.25;4.93;;;;;;;;;;4973784;28;20222;-73
2023/09/09 12:15:48;;;;;;;8.52;5.15;;;;;;;;;;4968228;28;20603;-73
2023/09/09 12:18:15;;;;;;;12.30;4.82;;;;;;;;;;4970238;28;20246;-72
2023/09/09 12:21:01;;;;;;;9.13;4.60;;;;;;;;;;4989271;28;20584;-72
2023/09/09 12:23:28;;;;;;;10.27;5.10;;;;;;;;;;4996638;28;20232;-72
2023/09/09 12:25:55;;;;;;;9.73;4.45;;;;;;;;;;5000030;28;20222;-72
2023/09/09 12:28:22;;;;;;;7.32;4.75;;;;;;;;;;4999694;28;20226;-72
2023/09/09 12:30:50;;;;;;;13.38;4.50;;;;;;;;;;5003102;28;20207;-72
2023/09/09 12:33:17;;;;;;;11.68;4.63;;;;;;;;;;5006851;28;20202;-72
2023/09/09 12:35:44;;;;;;;13.85;4.57;;;;;;;;;;5004898;28;20318;-72
2023/09/09 12:38:11;;;;;;;9.05;4.50;;;;;;;;;;5003153;28;20206;-72
2023/09/09 12:40:50;;;;;;;9.98;4.13;;;;;;;;;;5003356;28;20281;-72
2023/09/09 12:43:18;;;;;;;9.63;3.83;;;;;;;;;;5006350;28;20210;-73
2023/09/09 12:45:46;;;;;;;9.35;4.25;;;;;;;;;;5004470;28;20249;-73
2023/09/09 12:48:13;;;;;;;8.40;4.72;;;;;;;;;;5003112;28;20273;-73
2023/09/09 12:50:39;;;;;;;19.23;4.55;;;;;;;;;;5003540;28;20209;-72
2023/09/09 12:53:05;;;;;;;11.38;4.47;;;;;;;;;;5006288;28;20282;-72
2023/09/09 12:55:31;;;;;;;9.98;4.10;;;;;;;;;;5005723;28;20226;-73
2023/09/09 12:57:59;;;;;;;13.52;4.40;;;;;;;;;;5004023;28;20209;-73
2023/09/09 13:00:27;;;;;;;9.55;4.40;;;;;;;;;;5003248;28;20218;-72
2023/09/09 13:02:53;;;;;;;11.57;4.88;;;;;;;;;;5005670;28;20218;-72
2023/09/09 13:05:20;;;;;;;10.77;4.43;;;;;;;;;;5005649;28;20226;-73
2023/09/09 13:07:46;;;;;;;15.60;4.75;;;;;;;;;;5004355;28;20198;-73
2023/09/09 13:10:12;;;;;;;11.23;4.13;;;;;;;;;;5002802;28;20562;-72
2023/09/09 13:12:38;;;;;;;7.97;3.88;;;;;;;;;;5002354;28;20207;-73
2023/09/09 13:15:05;;;;;;;10.98;4.30;;;;;;;;;;5005596;28;20220;-73
2023/09/09 13:17:33;;;;;;;8.57;4.20;;;;;;;;;;5005873;28;20206;-73
2023/09/09 13:19:59;;;;;;;12.60;4.30;;;;;;;;;;5002422;28;20219;-72
2023/09/09 13:22:25;;;;;;;11.90;4.60;;;;;;;;;;5002092;28;20206;-72
2023/09/09 13:24:51;;;;;;;11.73;5.00;;;;;;;;;;5003623;28;20230;-72
2023/09/09 13:27:18;;;;;;;13.32;4.75;;;;;;;;;;5005383;28;20206;-72
2023/09/09 13:29:44;;;;;;;9.80;4.50;;;;;;;;;;5004743;28;20225;-72
2023/09/09 13:32:11;;;;;;;11.00;4.80;;;;;;;;;;5002195;28;20210;-72
2023/09/09 13:34:38;;;;;;;10.25;5.25;;;;;;;;;;5002221;28;20218;-72
2023/09/09 13:37:05;;;;;;;9.20;4.10;;;;;;;;;;4994373;28;20600;-72
2023/09/09 13:39:31;;;;;;;8.70;4.38;;;;;;;;;;5002359;28;20576;-72
2023/09/09 13:41:57;;;;;;;9.25;4.80;;;;;;;;;;5004085;28;20199;-72
2023/09/09 13:44:23;;;;;;;12.75;4.55;;;;;;;;;;5005412;28;20213;-72
2023/09/09 13:46:50;;;;;;;12.85;4.65;;;;;;;;;;5003470;28;20244;-72
2023/09/09 13:49:16;;;;;;;14.82;4.63;;;;;;;;;;5001694;28;20572;-72
2023/09/09 13:51:43;;;;;;;8.50;4.45;;;;;;;;;;5002023;28;20312;-72
2023/09/09 13:54:10;;;;;;;10.07;4.35;;;;;;;;;;5004985;28;20205;-72
2023/09/09 13:56:36;;;;;;;10.60;4.50;;;;;;;;;;5004575;28;20226;-72
2023/09/09 13:59:02;;;;;;;14.88;4.70;;;;;;;;;;5001948;28;20210;-72
2023/09/09 14:01:29;;;;;;;8.75;4.43;;;;;;;;;;5001587;28;20206;-72
2023/09/09 14:03:55;;;;;;;5.78;4.07;;;;;;;;;;5003218;28;20203;-72
2023/09/09 14:06:21;;;;;;;11.73;4.60;;;;;;;;;;5004423;28;20224;-72
2023/09/09 14:08:49;;;;;;;6.93;4.40;;;;;;;;;;5003845;28;20202;-72
2023/09/09 14:11:15;;;;;;;9.63;4.15;;;;;;;;;;5001109;28;20711;-72
2023/09/09 14:13:41;;;;;;;15.50;4.50;;;;;;;;;;5001123;28;20701;-72
2023/09/09 14:16:07;;;;;;;10.10;4.22;;;;;;;;;;5000884;28;20214;-72
2023/09/09 14:18:34;;;;;;;10.73;4.28;;;;;;;;;;5001315;28;20217;-72
2023/09/09 14:21:00;;;;;;;8.05;4.50;;;;;;;;;;5003272;28;20277;-72
2023/09/09 14:23:26;;;;;;;12.90;4.80;;;;;;;;;;5004261;28;20202;-72
2023/09/09 14:25:54;;;;;;;8.80;4.45;;;;;;;;;;5002723;28;20253;-72
2023/09/09 14:28:20;;;;;;;14.38;4.18;;;;;;;;;;5001158;28;20290;-72
2023/09/09 14:30:47;;;;;;;6.55;4.05;;;;;;;;;;5001189;28;20209;-73